sensor_id;sensor_type;location;lat;lon;timestamp;P1;durP1;ratioP1;P2;durP2;ratioP2
5805;SDS011;2929;50.810;8.342;2023-04-25T00:00:50;8.10;;;3.60;;
5805;SDS011;2929;50.810;8.342;2023-04-25T00:03:18;5.83;;;3.20;;
5805;SDS011;2929;50.810;8.342;2023-04-25T00:05:46;5.03;;;2.63;;
5805;SDS011;2929;50.810;8.342;2023-04-25T00:08:14;7.37;;;2.83;;
5805;SDS011;2929;50.810;8.342;2023-04-25T00:10:41;10.20;;;3.30;;
5805;SDS011;2929;50.810;8.342;2023-04-25T00:13:08;7.00;;;2.80;;
5805;SDS011;2929;50.810;8.342;2023-04-25T00:15:36;6.77;;;3.70;;
5805;SDS011;2929;50.810;8.342;2023-04-25T00:18:05;8.27;;;3.53;;
5805;SDS011;2929;50.810;8.342;2023-04-25T00:20:32;20.20;;;4.30;;
5805;SDS011;2929;50.810;8.342;2023-04-25T00:22:59;21.50;;;3.60;;
5805;SDS011;2929;50.810;8.342;2023-04-25T00:25:26;7.03;;;4.23;;
5805;SDS011;2929;50.810;8.342;2023-04-25T00:27:54;10.83;;;4.33;;
5805;SDS011;2929;50.810;8.342;2023-04-25T00:30:21;10.10;;;4.17;;
5805;SDS011;2929;50.810;8.342;2023-04-25T00:32:48;12.17;;;4.53;;
5805;SDS011;2929;50.810;8.342;2023-04-25T00:35:17;9.13;;;4.83;;
5805;SDS011;2929;50.810;8.342;2023-04-25T00:37:44;12.60;;;4.30;;
5805;SDS011;2929;50.810;8.342;2023-04-25T00:40:11;12.40;;;3.93;;
5805;SDS011;2929;50.810;8.342;2023-04-25T00:42:38;7.33;;;3.90;;
5805;SDS011;2929;50.810;8.342;2023-04-25T00:45:07;8.43;;;4.97;;
5805;SDS011;2929;50.810;8.342;2023-04-25T00:47:38;11.40;;;4.63;;
5805;SDS011;2929;50.810;8.342;2023-04-25T00:50:07;7.37;;;4.20;;
5805;SDS011;2929;50.810;8.342;2023-04-25T00:52:36;9.70;;;4.90;;
5805;SDS011;2929;50.810;8.342;2023-04-25T00:55:05;13.47;;;4.40;;
5805;SDS011;2929;50.810;8.342;2023-04-25T00:57:32;8.90;;;4.00;;
5805;SDS011;2929;50.810;8.342;2023-04-25T01:00:00;9.30;;;4.17;;
5805;SDS011;2929;50.810;8.342;2023-04-25T01:02:28;8.37;;;3.87;;
5805;SDS011;2929;50.810;8.342;2023-04-25T01:04:56;8.33;;;4.67;;
5805;SDS011;2929;50.810;8.342;2023-04-25T01:07:23;6.10;;;4.40;;
5805;SDS011;2929;50.810;8.342;2023-04-25T01:09:52;17.20;;;4.73;;
5805;SDS011;2929;50.810;8.342;2023-04-25T01:12:19;20.43;;;4.70;;
5805;SDS011;2929;50.810;8.342;2023-04-25T01:14:46;12.53;;;4.50;;
5805;SDS011;2929;50.810;8.342;2023-04-25T01:17:13;8.20;;;4.10;;
5805;SDS011;2929;50.810;8.342;2023-04-25T01:19:41;11.47;;;4.53;;
5805;SDS011;2929;50.810;8.342;2023-04-25T01:22:09;17.33;;;4.37;;
5805;SDS011;2929;50.810;8.342;2023-04-25T01:24:37;9.27;;;3.93;;
5805;SDS011;2929;50.810;8.342;2023-04-25T01:27:04;14.67;;;4.30;;
5805;SDS011;2929;50.810;8.342;2023-04-25T01:29:32;13.20;;;4.60;;
5805;SDS011;2929;50.810;8.342;2023-04-25T01:31:59;7.53;;;4.43;;
5805;SDS011;2929;50.810;8.342;2023-04-25T01:34:27;9.50;;;4.20;;
5805;SDS011;2929;50.810;8.342;2023-04-25T01:36:56;11.20;;;4.27;;
5805;SDS011;2929;50.810;8.342;2023-04-25T01:39:28;10.43;;;4.00;;
5805;SDS011;2929;50.810;8.342;2023-04-25T01:41:56;8.57;;;4.30;;
5805;SDS011;2929;50.810;8.342;2023-04-25T01:44:24;10.23;;;4.00;;
5805;SDS011;2929;50.810;8.342;2023-04-25T01:46:52;7.10;;;4.20;;
5805;SDS011;2929;50.810;8.342;2023-04-25T01:49:19;19.53;;;5.17;;
5805;SDS011;2929;50.810;8.342;2023-04-25T01:51:47;8.60;;;4.30;;
5805;SDS011;2929;50.810;8.342;2023-04-25T01:54:14;15.63;;;4.20;;
5805;SDS011;2929;50.810;8.342;2023-04-25T01:56:43;10.10;;;4.30;;
5805;SDS011;2929;50.810;8.342;2023-04-25T01:59:15;9.63;;;4.03;;
5805;SDS011;2929;50.810;8.342;2023-04-25T02:02:05;12.90;;;4.60;;
5805;SDS011;2929;50.810;8.342;2023-04-25T02:04:34;19.17;;;5.77;;
5805;SDS011;2929;50.810;8.342;2023-04-25T02:07:02;14.47;;;4.80;;
5805;SDS011;2929;50.810;8.342;2023-04-25T02:09:45;12.47;;;5.27;;
5805;SDS011;2929;50.810;8.342;2023-04-25T02:12:13;12.13;;;5.77;;
5805;SDS011;2929;50.810;8.342;2023-04-25T02:14:52;15.43;;;5.77;;
5805;SDS011;2929;50.810;8.342;2023-04-25T02:17:26;15.10;;;6.50;;
5805;SDS011;2929;50.810;8.342;2023-04-25T02:19:53;19.00;;;6.27;;
5805;SDS011;2929;50.810;8.342;2023-04-25T02:22:20;15.10;;;6.60;;
5805;SDS011;2929;50.810;8.342;2023-04-25T02:24:47;18.10;;;5.50;;
5805;SDS011;2929;50.810;8.342;2023-04-25T02:27:16;14.93;;;5.67;;
5805;SDS011;2929;50.810;8.342;2023-04-25T02:29:42;16.60;;;5.23;;
5805;SDS011;2929;50.810;8.342;2023-04-25T02:32:10;16.30;;;6.17;;
5805;SDS011;2929;50.810;8.342;2023-04-25T02:34:37;13.97;;;5.40;;
5805;SDS011;2929;50.810;8.342;2023-04-25T02:37:04;13.93;;;5.53;;
5805;SDS011;2929;50.810;8.342;2023-04-25T02:39:31;10.90;;;5.10;;
5805;SDS011;2929;50.810;8.342;2023-04-25T02:41:58;14.30;;;4.53;;
5805;SDS011;2929;50.810;8.342;2023-04-25T02:44:29;8.50;;;4.10;;
5805;SDS011;2929;50.810;8.342;2023-04-25T02:46:57;11.37;;;4.77;;
5805;SDS011;2929;50.810;8.342;2023-04-25T02:49:24;6.53;;;4.63;;
5805;SDS011;2929;50.810;8.342;2023-04-25T02:51:51;13.17;;;4.90;;
5805;SDS011;2929;50.810;8.342;2023-04-25T02:54:18;10.10;;;4.17;;
5805;SDS011;2929;50.810;8.342;2023-04-25T02:56:47;9.63;;;3.97;;
5805;SDS011;2929;50.810;8.342;2023-04-25T02:59:19;15.17;;;5.80;;
5805;SDS011;2929;50.810;8.342;2023-04-25T03:01:47;12.80;;;4.37;;
5805;SDS011;2929;50.810;8.342;2023-04-25T03:04:14;13.27;;;3.47;;
5805;SDS011;2929;50.810;8.342;2023-04-25T03:06:44;6.70;;;3.60;;
5805;SDS011;2929;50.810;8.342;2023-04-25T03:09:11;12.10;;;3.93;;
5805;SDS011;2929;50.810;8.342;2023-04-25T03:11:38;8.10;;;4.50;;
5805;SDS011;2929;50.810;8.342;2023-04-25T03:14:05;10.17;;;3.80;;
5805;SDS011;2929;50.810;8.342;2023-04-25T03:16:33;7.10;;;3.73;;
5805;SDS011;2929;50.810;8.342;2023-04-25T03:19:01;9.23;;;3.90;;
5805;SDS011;2929;50.810;8.342;2023-04-25T03:21:28;13.57;;;4.43;;
5805;SDS011;2929;50.810;8.342;2023-04-25T03:23:57;7.40;;;3.80;;
5805;SDS011;2929;50.810;8.342;2023-04-25T03:26:24;6.33;;;3.10;;
5805;SDS011;2929;50.810;8.342;2023-04-25T03:28:51;9.40;;;4.30;;
5805;SDS011;2929;50.810;8.342;2023-04-25T03:31:18;6.90;;;4.00;;
5805;SDS011;2929;50.810;8.342;2023-04-25T03:33:46;13.07;;;4.70;;
5805;SDS011;2929;50.810;8.342;2023-04-25T03:36:14;17.70;;;4.10;;
5805;SDS011;2929;50.810;8.342;2023-04-25T03:38:41;13.53;;;3.70;;
5805;SDS011;2929;50.810;8.342;2023-04-25T03:41:11;10.47;;;3.97;;
5805;SDS011;2929;50.810;8.342;2023-04-25T03:43:48;10.33;;;4.87;;
5805;SDS011;2929;50.810;8.342;2023-04-25T03:46:16;7.30;;;3.67;;
5805;SDS011;2929;50.810;8.342;2023-04-25T03:48:44;11.97;;;4.63;;
5805;SDS011;2929;50.810;8.342;2023-04-25T03:51:18;13.17;;;5.03;;
5805;SDS011;2929;50.810;8.342;2023-04-25T03:53:46;12.10;;;4.73;;
5805;SDS011;2929;50.810;8.342;2023-04-25T03:56:14;11.83;;;5.10;;
5805;SDS011;2929;50.810;8.342;2023-04-25T03:58:43;17.13;;;5.43;;
5805;SDS011;2929;50.810;8.342;2023-04-25T04:01:10;10.67;;;5.57;;
5805;SDS011;2929;50.810;8.342;2023-04-25T04:03:38;19.30;;;5.30;;
5805;SDS011;2929;50.810;8.342;2023-04-25T04:06:06;10.70;;;5.43;;
5805;SDS011;2929;50.810;8.342;2023-04-25T04:08:39;13.00;;;5.00;;
5805;SDS011;2929;50.810;8.342;2023-04-25T04:11:08;19.10;;;6.53;;
5805;SDS011;2929;50.810;8.342;2023-04-25T04:13:36;8.60;;;5.27;;
5805;SDS011;2929;50.810;8.342;2023-04-25T04:16:04;8.60;;;5.30;;
5805;SDS011;2929;50.810;8.342;2023-04-25T04:18:32;7.50;;;4.50;;
5805;SDS011;2929;50.810;8.342;2023-04-25T04:20:59;27.97;;;9.03;;
5805;SDS011;2929;50.810;8.342;2023-04-25T04:23:28;15.37;;;6.27;;
5805;SDS011;2929;50.810;8.342;2023-04-25T04:25:58;10.60;;;5.20;;
5805;SDS011;2929;50.810;8.342;2023-04-25T04:28:41;15.17;;;5.90;;
5805;SDS011;2929;50.810;8.342;2023-04-25T04:31:21;13.10;;;5.47;;
5805;SDS011;2929;50.810;8.342;2023-04-25T04:33:49;8.50;;;5.13;;
5805;SDS011;2929;50.810;8.342;2023-04-25T04:36:17;12.70;;;5.30;;
5805;SDS011;2929;50.810;8.342;2023-04-25T04:38:47;19.10;;;6.13;;
5805;SDS011;2929;50.810;8.342;2023-04-25T04:41:33;12.50;;;6.20;;
5805;SDS011;2929;50.810;8.342;2023-04-25T04:44:10;10.30;;;5.67;;
5805;SDS011;2929;50.810;8.342;2023-04-25T04:46:56;13.10;;;6.10;;
5805;SDS011;2929;50.810;8.342;2023-04-25T04:49:52;14.73;;;5.37;;
5805;SDS011;2929;50.810;8.342;2023-04-25T04:52:37;12.60;;;5.20;;
5805;SDS011;2929;50.810;8.342;2023-04-25T04:55:23;13.73;;;5.93;;
5805;SDS011;2929;50.810;8.342;2023-04-25T04:58:11;10.20;;;5.40;;
5805;SDS011;2929;50.810;8.342;2023-04-25T05:00:47;20.33;;;6.80;;
5805;SDS011;2929;50.810;8.342;2023-04-25T05:03:49;19.60;;;6.13;;
5805;SDS011;2929;50.810;8.342;2023-04-25T05:06:33;11.90;;;6.60;;
5805;SDS011;2929;50.810;8.342;2023-04-25T05:09:26;11.53;;;5.73;;
5805;SDS011;2929;50.810;8.342;2023-04-25T05:12:06;19.90;;;6.77;;
5805;SDS011;2929;50.810;8.342;2023-04-25T05:14:50;12.70;;;5.77;;
5805;SDS011;2929;50.810;8.342;2023-04-25T05:17:39;14.97;;;6.70;;
5805;SDS011;2929;50.810;8.342;2023-04-25T05:20:30;28.23;;;7.70;;
5805;SDS011;2929;50.810;8.342;2023-04-25T05:23:21;14.70;;;6.90;;
5805;SDS011;2929;50.810;8.342;2023-04-25T05:25:55;14.70;;;6.93;;
5805;SDS011;2929;50.810;8.342;2023-04-25T05:28:34;14.47;;;6.60;;
5805;SDS011;2929;50.810;8.342;2023-04-25T05:31:23;11.93;;;6.80;;
5805;SDS011;2929;50.810;8.342;2023-04-25T05:34:03;14.50;;;6.70;;
5805;SDS011;2929;50.810;8.342;2023-04-25T05:36:53;12.97;;;6.90;;
5805;SDS011;2929;50.810;8.342;2023-04-25T05:39:20;20.17;;;7.77;;
5805;SDS011;2929;50.810;8.342;2023-04-25T05:42:07;15.50;;;7.43;;
5805;SDS011;2929;50.810;8.342;2023-04-25T05:44:52;12.20;;;7.00;;
5805;SDS011;2929;50.810;8.342;2023-04-25T05:47:50;14.20;;;7.30;;
5805;SDS011;2929;50.810;8.342;2023-04-25T05:50:22;18.80;;;6.63;;
5805;SDS011;2929;50.810;8.342;2023-04-25T05:53:00;21.77;;;7.37;;
5805;SDS011;2929;50.810;8.342;2023-04-25T05:55:35;17.80;;;7.57;;
5805;SDS011;2929;50.810;8.342;2023-04-25T05:58:17;18.37;;;7.30;;
5805;SDS011;2929;50.810;8.342;2023-04-25T06:00:44;21.30;;;7.80;;
5805;SDS011;2929;50.810;8.342;2023-04-25T06:03:13;17.30;;;8.50;;
5805;SDS011;2929;50.810;8.342;2023-04-25T06:05:40;19.77;;;7.53;;
5805;SDS011;2929;50.810;8.342;2023-04-25T06:08:08;17.80;;;6.83;;
5805;SDS011;2929;50.810;8.342;2023-04-25T06:10:36;16.43;;;6.70;;
5805;SDS011;2929;50.810;8.342;2023-04-25T06:13:03;15.20;;;6.67;;
5805;SDS011;2929;50.810;8.342;2023-04-25T06:15:33;14.07;;;6.43;;
5805;SDS011;2929;50.810;8.342;2023-04-25T06:18:00;12.13;;;6.60;;
5805;SDS011;2929;50.810;8.342;2023-04-25T06:20:29;20.63;;;7.67;;
5805;SDS011;2929;50.810;8.342;2023-04-25T06:22:58;15.40;;;5.70;;
5805;SDS011;2929;50.810;8.342;2023-04-25T06:25:35;15.57;;;7.50;;
5805;SDS011;2929;50.810;8.342;2023-04-25T06:28:02;13.17;;;6.53;;
5805;SDS011;2929;50.810;8.342;2023-04-25T06:30:30;13.50;;;6.80;;
5805;SDS011;2929;50.810;8.342;2023-04-25T06:33:04;12.67;;;6.67;;
5805;SDS011;2929;50.810;8.342;2023-04-25T06:35:33;17.53;;;7.40;;
5805;SDS011;2929;50.810;8.342;2023-04-25T06:38:00;17.53;;;7.77;;
5805;SDS011;2929;50.810;8.342;2023-04-25T06:40:29;15.70;;;8.60;;
5805;SDS011;2929;50.810;8.342;2023-04-25T06:42:56;10.77;;;6.50;;
5805;SDS011;2929;50.810;8.342;2023-04-25T06:45:48;13.13;;;5.63;;
5805;SDS011;2929;50.810;8.342;2023-04-25T06:48:16;11.33;;;5.70;;
5805;SDS011;2929;50.810;8.342;2023-04-25T06:50:44;11.03;;;6.13;;
5805;SDS011;2929;50.810;8.342;2023-04-25T06:53:11;13.17;;;5.60;;
5805;SDS011;2929;50.810;8.342;2023-04-25T06:55:41;13.60;;;5.77;;
5805;SDS011;2929;50.810;8.342;2023-04-25T06:58:20;12.30;;;5.37;;
5805;SDS011;2929;50.810;8.342;2023-04-25T07:00:56;13.03;;;5.33;;
5805;SDS011;2929;50.810;8.342;2023-04-25T07:03:25;10.87;;;5.20;;
5805;SDS011;2929;50.810;8.342;2023-04-25T07:05:58;12.07;;;5.13;;
5805;SDS011;2929;50.810;8.342;2023-04-25T07:08:25;13.17;;;4.70;;
5805;SDS011;2929;50.810;8.342;2023-04-25T07:10:52;13.60;;;5.90;;
5805;SDS011;2929;50.810;8.342;2023-04-25T07:13:19;8.70;;;5.40;;
5805;SDS011;2929;50.810;8.342;2023-04-25T07:15:46;9.03;;;4.33;;
5805;SDS011;2929;50.810;8.342;2023-04-25T07:18:15;9.13;;;4.57;;
5805;SDS011;2929;50.810;8.342;2023-04-25T07:20:42;8.97;;;4.47;;
5805;SDS011;2929;50.810;8.342;2023-04-25T07:23:11;13.40;;;4.43;;
5805;SDS011;2929;50.810;8.342;2023-04-25T07:25:38;16.63;;;5.30;;
5805;SDS011;2929;50.810;8.342;2023-04-25T07:28:06;15.03;;;6.00;;
5805;SDS011;2929;50.810;8.342;2023-04-25T07:30:35;10.23;;;4.13;;
5805;SDS011;2929;50.810;8.342;2023-04-25T07:33:03;5.93;;;3.30;;
5805;SDS011;2929;50.810;8.342;2023-04-25T07:35:30;8.43;;;4.17;;
5805;SDS011;2929;50.810;8.342;2023-04-25T07:37:57;4.63;;;2.60;;
5805;SDS011;2929;50.810;8.342;2023-04-25T07:40:26;5.80;;;3.50;;
5805;SDS011;2929;50.810;8.342;2023-04-25T07:42:59;8.90;;;2.90;;
5805;SDS011;2929;50.810;8.342;2023-04-25T07:45:43;6.00;;;3.30;;
5805;SDS011;2929;50.810;8.342;2023-04-25T07:48:13;7.93;;;2.87;;
5805;SDS011;2929;50.810;8.342;2023-04-25T07:50:43;8.80;;;3.17;;
5805;SDS011;2929;50.810;8.342;2023-04-25T07:53:10;6.60;;;3.40;;
5805;SDS011;2929;50.810;8.342;2023-04-25T07:55:46;12.90;;;4.00;;
5805;SDS011;2929;50.810;8.342;2023-04-25T07:58:15;14.67;;;5.83;;
5805;SDS011;2929;50.810;8.342;2023-04-25T08:00:47;18.20;;;4.67;;
5805;SDS011;2929;50.810;8.342;2023-04-25T08:03:27;7.13;;;2.60;;
5805;SDS011;2929;50.810;8.342;2023-04-25T08:05:54;10.63;;;2.70;;
5805;SDS011;2929;50.810;8.342;2023-04-25T08:08:24;5.13;;;2.10;;
5805;SDS011;2929;50.810;8.342;2023-04-25T08:10:52;18.23;;;3.13;;
5805;SDS011;2929;50.810;8.342;2023-04-25T08:13:20;8.40;;;2.73;;
5805;SDS011;2929;50.810;8.342;2023-04-25T08:15:47;7.80;;;2.67;;
5805;SDS011;2929;50.810;8.342;2023-04-25T08:18:14;15.53;;;2.70;;
5805;SDS011;2929;50.810;8.342;2023-04-25T08:20:42;9.63;;;2.23;;
5805;SDS011;2929;50.810;8.342;2023-04-25T08:23:10;9.73;;;2.17;;
5805;SDS011;2929;50.810;8.342;2023-04-25T08:26:00;12.83;;;4.30;;
5805;SDS011;2929;50.810;8.342;2023-04-25T08:28:28;22.00;;;2.70;;
5805;SDS011;2929;50.810;8.342;2023-04-25T08:30:58;12.10;;;3.67;;
5805;SDS011;2929;50.810;8.342;2023-04-25T08:33:32;5.77;;;2.20;;
5805;SDS011;2929;50.810;8.342;2023-04-25T08:36:07;6.90;;;2.00;;
5805;SDS011;2929;50.810;8.342;2023-04-25T08:38:35;8.30;;;2.10;;
5805;SDS011;2929;50.810;8.342;2023-04-25T08:41:06;7.73;;;2.17;;
5805;SDS011;2929;50.810;8.342;2023-04-25T08:43:33;10.20;;;2.80;;
5805;SDS011;2929;50.810;8.342;2023-04-25T08:46:01;9.77;;;2.40;;
5805;SDS011;2929;50.810;8.342;2023-04-25T08:48:49;16.67;;;5.00;;
5805;SDS011;2929;50.810;8.342;2023-04-25T08:51:20;9.80;;;2.40;;
5805;SDS011;2929;50.810;8.342;2023-04-25T08:53:51;6.07;;;2.47;;
5805;SDS011;2929;50.810;8.342;2023-04-25T08:56:21;12.33;;;2.10;;
5805;SDS011;2929;50.810;8.342;2023-04-25T08:58:49;5.33;;;1.77;;
5805;SDS011;2929;50.810;8.342;2023-04-25T09:01:16;8.50;;;1.97;;
5805;SDS011;2929;50.810;8.342;2023-04-25T09:03:49;7.83;;;2.40;;
5805;SDS011;2929;50.810;8.342;2023-04-25T09:06:17;10.70;;;2.20;;
5805;SDS011;2929;50.810;8.342;2023-04-25T09:08:49;5.57;;;1.63;;
5805;SDS011;2929;50.810;8.342;2023-04-25T09:11:16;6.60;;;1.97;;
5805;SDS011;2929;50.810;8.342;2023-04-25T09:13:46;8.60;;;2.23;;
5805;SDS011;2929;50.810;8.342;2023-04-25T09:16:26;3.23;;;1.63;;
5805;SDS011;2929;50.810;8.342;2023-04-25T09:19:20;4.53;;;2.20;;
5805;SDS011;2929;50.810;8.342;2023-04-25T09:21:48;3.83;;;1.60;;
5805;SDS011;2929;50.810;8.342;2023-04-25T09:24:16;9.57;;;2.43;;
5805;SDS011;2929;50.810;8.342;2023-04-25T09:26:45;10.23;;;1.97;;
5805;SDS011;2929;50.810;8.342;2023-04-25T09:29:14;12.27;;;3.13;;
5805;SDS011;2929;50.810;8.342;2023-04-25T09:31:41;6.53;;;1.73;;
5805;SDS011;2929;50.810;8.342;2023-04-25T09:34:10;7.37;;;1.90;;
5805;SDS011;2929;50.810;8.342;2023-04-25T09:36:44;10.77;;;2.93;;
5805;SDS011;2929;50.810;8.342;2023-04-25T09:39:28;13.40;;;2.33;;
5805;SDS011;2929;50.810;8.342;2023-04-25T09:42:02;18.50;;;3.17;;
5805;SDS011;2929;50.810;8.342;2023-04-25T09:44:31;8.30;;;2.40;;
5805;SDS011;2929;50.810;8.342;2023-04-25T09:46:59;6.40;;;2.70;;
5805;SDS011;2929;50.810;8.342;2023-04-25T09:49:29;5.87;;;2.00;;
5805;SDS011;2929;50.810;8.342;2023-04-25T09:52:09;7.70;;;2.30;;
5805;SDS011;2929;50.810;8.342;2023-04-25T09:55:00;6.97;;;2.30;;
5805;SDS011;2929;50.810;8.342;2023-04-25T09:57:32;6.27;;;2.07;;
5805;SDS011;2929;50.810;8.342;2023-04-25T10:00:01;14.57;;;2.57;;
5805;SDS011;2929;50.810;8.342;2023-04-25T10:02:39;7.27;;;2.80;;
5805;SDS011;2929;50.810;8.342;2023-04-25T10:05:14;6.83;;;2.23;;
5805;SDS011;2929;50.810;8.342;2023-04-25T10:07:42;7.70;;;1.90;;
5805;SDS011;2929;50.810;8.342;2023-04-25T10:10:15;9.83;;;2.17;;
5805;SDS011;2929;50.810;8.342;2023-04-25T10:12:43;8.87;;;2.83;;
5805;SDS011;2929;50.810;8.342;2023-04-25T10:15:13;8.33;;;2.00;;
5805;SDS011;2929;50.810;8.342;2023-04-25T10:17:41;12.07;;;3.00;;
5805;SDS011;2929;50.810;8.342;2023-04-25T10:20:08;9.83;;;3.43;;
5805;SDS011;2929;50.810;8.342;2023-04-25T10:22:37;13.17;;;2.93;;
5805;SDS011;2929;50.810;8.342;2023-04-25T10:25:08;7.60;;;2.27;;
5805;SDS011;2929;50.810;8.342;2023-04-25T10:27:36;8.23;;;2.40;;
5805;SDS011;2929;50.810;8.342;2023-04-25T10:30:04;6.50;;;2.60;;
5805;SDS011;2929;50.810;8.342;2023-04-25T10:32:36;9.60;;;2.27;;
5805;SDS011;2929;50.810;8.342;2023-04-25T10:35:11;9.80;;;2.50;;
5805;SDS011;2929;50.810;8.342;2023-04-25T10:40:26;9.30;;;3.10;;
5805;SDS011;2929;50.810;8.342;2023-04-25T10:42:53;15.80;;;3.17;;
5805;SDS011;2929;50.810;8.342;2023-04-25T10:45:21;5.70;;;2.10;;
5805;SDS011;2929;50.810;8.342;2023-04-25T10:47:50;6.63;;;2.60;;
5805;SDS011;2929;50.810;8.342;2023-04-25T10:50:17;7.70;;;2.57;;
5805;SDS011;2929;50.810;8.342;2023-04-25T10:52:44;8.13;;;2.67;;
5805;SDS011;2929;50.810;8.342;2023-04-25T10:55:11;6.00;;;2.63;;
5805;SDS011;2929;50.810;8.342;2023-04-25T10:57:39;6.73;;;2.30;;
5805;SDS011;2929;50.810;8.342;2023-04-25T11:00:11;9.87;;;2.43;;
5805;SDS011;2929;50.810;8.342;2023-04-25T11:02:40;6.37;;;2.20;;
5805;SDS011;2929;50.810;8.342;2023-04-25T11:05:11;8.37;;;2.50;;
5805;SDS011;2929;50.810;8.342;2023-04-25T11:07:49;9.50;;;2.00;;
5805;SDS011;2929;50.810;8.342;2023-04-25T11:10:17;6.93;;;2.57;;
5805;SDS011;2929;50.810;8.342;2023-04-25T11:12:45;4.20;;;2.20;;
5805;SDS011;2929;50.810;8.342;2023-04-25T11:15:13;5.30;;;2.30;;
5805;SDS011;2929;50.810;8.342;2023-04-25T11:17:41;6.83;;;2.60;;
5805;SDS011;2929;50.810;8.342;2023-04-25T11:20:13;9.50;;;2.70;;
5805;SDS011;2929;50.810;8.342;2023-04-25T11:22:41;6.93;;;2.63;;
5805;SDS011;2929;50.810;8.342;2023-04-25T11:25:10;5.20;;;2.60;;
5805;SDS011;2929;50.810;8.342;2023-04-25T11:27:39;2.97;;;2.00;;
5805;SDS011;2929;50.810;8.342;2023-04-25T11:30:16;15.80;;;3.03;;
5805;SDS011;2929;50.810;8.342;2023-04-25T11:32:44;11.70;;;2.37;;
5805;SDS011;2929;50.810;8.342;2023-04-25T11:35:13;7.07;;;2.63;;
5805;SDS011;2929;50.810;8.342;2023-04-25T11:37:41;7.03;;;2.33;;
5805;SDS011;2929;50.810;8.342;2023-04-25T11:40:09;6.30;;;2.33;;
5805;SDS011;2929;50.810;8.342;2023-04-25T11:42:37;5.27;;;2.13;;
5805;SDS011;2929;50.810;8.342;2023-04-25T11:45:05;6.07;;;1.77;;
5805;SDS011;2929;50.810;8.342;2023-04-25T11:47:33;6.20;;;1.90;;
5805;SDS011;2929;50.810;8.342;2023-04-25T11:50:00;7.63;;;2.27;;
5805;SDS011;2929;50.810;8.342;2023-04-25T11:52:37;7.23;;;3.47;;
5805;SDS011;2929;50.810;8.342;2023-04-25T11:55:06;4.90;;;2.13;;
5805;SDS011;2929;50.810;8.342;2023-04-25T11:57:34;4.67;;;1.63;;
5805;SDS011;2929;50.810;8.342;2023-04-25T12:00:05;5.83;;;2.53;;
5805;SDS011;2929;50.810;8.342;2023-04-25T12:02:39;6.20;;;2.07;;
5805;SDS011;2929;50.810;8.342;2023-04-25T12:05:07;9.10;;;2.10;;
5805;SDS011;2929;50.810;8.342;2023-04-25T12:07:35;5.13;;;1.80;;
5805;SDS011;2929;50.810;8.342;2023-04-25T12:10:04;8.40;;;2.00;;
5805;SDS011;2929;50.810;8.342;2023-04-25T12:12:33;6.20;;;2.20;;
5805;SDS011;2929;50.810;8.342;2023-04-25T12:15:08;7.10;;;2.07;;
5805;SDS011;2929;50.810;8.342;2023-04-25T12:17:37;7.13;;;1.90;;
5805;SDS011;2929;50.810;8.342;2023-04-25T12:20:06;5.57;;;1.73;;
5805;SDS011;2929;50.810;8.342;2023-04-25T12:22:35;10.90;;;1.80;;
5805;SDS011;2929;50.810;8.342;2023-04-25T12:25:04;6.40;;;1.80;;
5805;SDS011;2929;50.810;8.342;2023-04-25T12:27:32;4.83;;;1.70;;
5805;SDS011;2929;50.810;8.342;2023-04-25T12:30:01;8.60;;;1.87;;
5805;SDS011;2929;50.810;8.342;2023-04-25T12:32:29;9.20;;;1.73;;
5805;SDS011;2929;50.810;8.342;2023-04-25T12:34:56;5.90;;;1.40;;
5805;SDS011;2929;50.810;8.342;2023-04-25T12:37:24;1.30;;;1.20;;
5805;SDS011;2929;50.810;8.342;2023-04-25T12:39:51;6.43;;;1.60;;
5805;SDS011;2929;50.810;8.342;2023-04-25T12:42:20;6.87;;;2.13;;
5805;SDS011;2929;50.810;8.342;2023-04-25T12:44:47;10.37;;;1.77;;
5805;SDS011;2929;50.810;8.342;2023-04-25T12:47:14;8.10;;;2.73;;
5805;SDS011;2929;50.810;8.342;2023-04-25T12:49:41;6.93;;;1.83;;
5805;SDS011;2929;50.810;8.342;2023-04-25T12:52:08;6.43;;;1.77;;
5805;SDS011;2929;50.810;8.342;2023-04-25T12:54:36;4.70;;;1.60;;
5805;SDS011;2929;50.810;8.342;2023-04-25T12:57:03;8.87;;;2.00;;
5805;SDS011;2929;50.810;8.342;2023-04-25T12:59:33;13.80;;;2.77;;
5805;SDS011;2929;50.810;8.342;2023-04-25T13:02:00;5.70;;;1.93;;
5805;SDS011;2929;50.810;8.342;2023-04-25T13:04:28;5.40;;;1.80;;
5805;SDS011;2929;50.810;8.342;2023-04-25T13:06:56;8.60;;;2.33;;
5805;SDS011;2929;50.810;8.342;2023-04-25T13:09:23;9.90;;;4.13;;
5805;SDS011;2929;50.810;8.342;2023-04-25T13:11:51;6.43;;;1.70;;
5805;SDS011;2929;50.810;8.342;2023-04-25T13:14:19;3.30;;;1.60;;
5805;SDS011;2929;50.810;8.342;2023-04-25T13:16:48;4.30;;;1.70;;
5805;SDS011;2929;50.810;8.342;2023-04-25T13:19:17;5.40;;;1.77;;
5805;SDS011;2929;50.810;8.342;2023-04-25T13:21:44;3.50;;;1.63;;
5805;SDS011;2929;50.810;8.342;2023-04-25T13:24:11;3.00;;;1.53;;
5805;SDS011;2929;50.810;8.342;2023-04-25T13:26:39;8.90;;;1.80;;
5805;SDS011;2929;50.810;8.342;2023-04-25T13:29:06;7.83;;;2.17;;
5805;SDS011;2929;50.810;8.342;2023-04-25T13:31:34;4.00;;;1.40;;
5805;SDS011;2929;50.810;8.342;2023-04-25T13:34:02;3.00;;;1.57;;
5805;SDS011;2929;50.810;8.342;2023-04-25T13:36:30;3.80;;;1.47;;
5805;SDS011;2929;50.810;8.342;2023-04-25T13:38:57;5.13;;;1.50;;
5805;SDS011;2929;50.810;8.342;2023-04-25T13:41:24;4.07;;;1.87;;
5805;SDS011;2929;50.810;8.342;2023-04-25T13:43:51;4.23;;;1.73;;
5805;SDS011;2929;50.810;8.342;2023-04-25T13:46:18;6.57;;;1.80;;
5805;SDS011;2929;50.810;8.342;2023-04-25T13:48:45;3.57;;;1.63;;
5805;SDS011;2929;50.810;8.342;2023-04-25T13:51:15;6.10;;;1.33;;
5805;SDS011;2929;50.810;8.342;2023-04-25T13:53:43;3.33;;;1.73;;
5805;SDS011;2929;50.810;8.342;2023-04-25T13:56:10;3.60;;;2.00;;
5805;SDS011;2929;50.810;8.342;2023-04-25T13:58:38;2.60;;;1.40;;
5805;SDS011;2929;50.810;8.342;2023-04-25T14:01:05;13.67;;;2.23;;
5805;SDS011;2929;50.810;8.342;2023-04-25T14:03:33;4.87;;;2.03;;
5805;SDS011;2929;50.810;8.342;2023-04-25T14:06:00;4.57;;;1.60;;
5805;SDS011;2929;50.810;8.342;2023-04-25T14:08:28;4.03;;;1.33;;
5805;SDS011;2929;50.810;8.342;2023-04-25T14:10:56;6.30;;;1.73;;
5805;SDS011;2929;50.810;8.342;2023-04-25T14:13:24;4.50;;;1.80;;
5805;SDS011;2929;50.810;8.342;2023-04-25T14:15:51;2.10;;;1.40;;
5805;SDS011;2929;50.810;8.342;2023-04-25T14:18:18;7.10;;;1.80;;
5805;SDS011;2929;50.810;8.342;2023-04-25T14:20:45;7.03;;;1.70;;
5805;SDS011;2929;50.810;8.342;2023-04-25T14:23:12;5.33;;;1.60;;
5805;SDS011;2929;50.810;8.342;2023-04-25T14:25:41;3.50;;;1.40;;
5805;SDS011;2929;50.810;8.342;2023-04-25T14:28:10;6.67;;;1.60;;
5805;SDS011;2929;50.810;8.342;2023-04-25T14:30:37;3.23;;;1.40;;
5805;SDS011;2929;50.810;8.342;2023-04-25T14:33:04;8.23;;;2.00;;
5805;SDS011;2929;50.810;8.342;2023-04-25T14:35:31;6.40;;;1.73;;
5805;SDS011;2929;50.810;8.342;2023-04-25T14:37:58;5.07;;;1.47;;
5805;SDS011;2929;50.810;8.342;2023-04-25T14:40:27;7.40;;;1.50;;
5805;SDS011;2929;50.810;8.342;2023-04-25T14:42:55;9.67;;;2.00;;
5805;SDS011;2929;50.810;8.342;2023-04-25T14:45:22;2.87;;;1.50;;
5805;SDS011;2929;50.810;8.342;2023-04-25T14:47:49;2.40;;;1.70;;
5805;SDS011;2929;50.810;8.342;2023-04-25T14:50:17;4.47;;;1.70;;
5805;SDS011;2929;50.810;8.342;2023-04-25T14:52:45;4.30;;;1.90;;
5805;SDS011;2929;50.810;8.342;2023-04-25T14:55:12;3.97;;;1.57;;
5805;SDS011;2929;50.810;8.342;2023-04-25T14:57:39;3.93;;;1.53;;
5805;SDS011;2929;50.810;8.342;2023-04-25T15:00:08;6.40;;;1.63;;
5805;SDS011;2929;50.810;8.342;2023-04-25T15:02:38;2.80;;;1.13;;
5805;SDS011;2929;50.810;8.342;2023-04-25T15:05:06;5.43;;;1.50;;
5805;SDS011;2929;50.810;8.342;2023-04-25T15:07:35;2.27;;;1.17;;
5805;SDS011;2929;50.810;8.342;2023-04-25T15:10:02;5.83;;;2.23;;
5805;SDS011;2929;50.810;8.342;2023-04-25T15:12:30;5.43;;;1.90;;
5805;SDS011;2929;50.810;8.342;2023-04-25T15:14:58;2.30;;;1.50;;
5805;SDS011;2929;50.810;8.342;2023-04-25T15:17:26;6.43;;;1.87;;
5805;SDS011;2929;50.810;8.342;2023-04-25T15:19:56;3.90;;;1.67;;
5805;SDS011;2929;50.810;8.342;2023-04-25T15:22:23;2.37;;;1.53;;
5805;SDS011;2929;50.810;8.342;2023-04-25T15:24:50;5.50;;;1.80;;
5805;SDS011;2929;50.810;8.342;2023-04-25T15:27:17;3.00;;;1.80;;
5805;SDS011;2929;50.810;8.342;2023-04-25T15:29:44;3.90;;;1.70;;
5805;SDS011;2929;50.810;8.342;2023-04-25T15:32:11;7.43;;;1.43;;